Latest Weather Observations for Dennes Point

IDT60901

Issued at 6:41 pm EST Saturday 25 April 2015 (issued every 10 minutes, with the page automatically refreshed every 10 minutes)

About weather observations | Map of Hobart area stations | Latest observations for Hobart area | Other Formats
Station Details ID: 094255 Name: DENNES POINT Lat: -43.06 Lon: 147.36 Height: 5.67 m
Data from the previous 72 hours. | See also: Recent months at Dennes Point
Date/Time
EST
Tmp

°C
App
Tmp
°C
Dew
Point
°C
Rel
Hum
%
Delta-T

°C
Wind Press
QNH
hPa
Press
MSL
hPa
Rain
since
9 am
mm
Dir
 
Spd
km/h
Gust
km/h
Spd
kts
Gust
kts
25/06:30pm 10.4 8.3 6.5 77 1.8 S 7 17 4 9 1013.0 1013.0 0.2
25/06:00pm 10.5 7.9 6.1 74 2.0 SSW 9 13 5 7 1012.6 1012.6 0.2
25/05:30pm 10.6 7.6 6.2 74 2.0 SW 11 20 6 11 1012.3 1012.3 0.2
25/05:00pm 10.7 7.4 6.3 74 2.1 SSW 13 19 7 10 1012.0 1012.0 0.2
25/04:30pm 11.2 8.3 6.7 74 2.1 S 11 22 6 12 1011.8 1011.8 0.2
25/04:00pm 11.6 9.1 6.7 72 2.3 SW 9 15 5 8 1011.5 1011.5 0.2
25/03:30pm 11.6 8.3 6.3 70 2.5 SSW 13 20 7 11 1011.3 1011.3 0.2
25/03:00pm 12.0 8.3 6.3 68 2.7 SW 15 24 8 13 1011.1 1011.1 0.2
25/02:30pm 11.8 7.7 6.1 68 2.7 SSW 17 24 9 13 1010.9 1010.9 0.2
25/02:00pm 12.5 8.5 6.5 67 2.9 SSW 17 24 9 13 1010.7 1010.7 0.2
25/01:30pm 12.1 8.9 6.8 70 2.5 SSW 13 19 7 10 1010.8 1010.8 0.2
25/01:00pm 12.9 9.7 6.9 67 2.9 SW 13 19 7 10 1010.8 1010.8 0.2
25/12:30pm 13.2 9.6 6.8 65 3.1 SW 15 20 8 11 1010.7 1010.7 0.2
25/12:00pm 13.3 9.3 6.6 64 3.2 WSW 17 24 9 13 1010.8 1010.8 0.2
25/11:30am 13.1 9.9 6.7 65 3.1 SSW 13 24 7 13 1010.9 1010.9 0.2
25/11:00am 12.2 8.0 7.3 72 2.4 SW 19 28 10 15 1010.9 1010.9 0.0
25/10:30am 11.7 7.8 7.2 74 2.2 SW 17 24 9 13 1010.7 1010.7 0.0
25/10:00am 11.5 8.5 7.6 77 1.9 SSW 13 22 7 12 1010.7 1010.7 0.0
25/09:30am 11.0 8.0 7.9 81 1.5 SSW 13 24 7 13 1010.5 1010.5 0.0
25/09:00am 10.8 7.9 8.0 83 1.4 SSW 13 19 7 10 1010.2 1010.2 2.4
25/08:30am 10.7 8.3 8.6 87 1.0 SSW 11 19 6 10 1010.0 1010.0 2.4
25/08:00am 10.0 6.9 8.8 92 0.6 SSW 15 26 8 14 1009.6 1009.6 2.4
25/07:30am 10.3 6.9 9.2 93 0.5 SW 17 24 9 13 1009.1 1009.1 2.4
25/07:00am 10.4 6.7 9.3 93 0.5 SSW 19 28 10 15 1008.5 1008.4 2.4
25/06:30am 10.8 7.5 9.7 93 0.6 SW 17 30 9 16 1008.1 1008.0 2.2
25/06:00am 10.8 9.3 9.2 90 0.8 S 7 11 4 6 1007.4 1007.3 1.4
25/05:30am 11.1 9.2 9.2 88 0.9 SW 9 17 5 9 1007.1 1007.0 1.4
25/05:00am 11.1 8.5 9.5 90 0.8 WSW 13 17 7 9 1006.8 1006.7 1.4
25/04:30am 11.3 8.0 9.6 89 0.9 W 17 22 9 12 1006.5 1006.4 1.4
25/04:00am 11.1 8.6 9.7 91 0.7 WSW 13 19 7 10 1006.3 1006.2 1.4
25/03:30am 11.1 7.9 9.9 92 0.6 SW 17 22 9 12 1006.0 1005.9 1.2
25/03:00am 11.1 9.4 9.7 91 0.7 SSW 9 15 5 8 1005.9 1005.8 1.2
25/02:30am 11.4 8.4 9.3 87 1.1 SSW 15 24 8 13 1005.8 1005.7 1.0
25/02:00am 11.9 10.4 9.1 83 1.4 SSW 7 9 4 5 1005.6 1005.5 1.0
25/01:30am 12.0 10.1 9.2 83 1.4 SW 9 13 5 7 1005.3 1005.2 1.0
25/01:00am 12.3 9.0 9.5 83 1.4 SW 17 22 9 12 1005.0 1004.9 1.0
25/12:30am 12.0 8.7 9.6 85 1.2 SSW 17 24 9 13 1004.9 1004.8 1.0
25/12:00am 12.2 9.7 9.6 84 1.3 SSW 13 19 7 10 1004.9 1004.8 1.0
 
Date/Time
EST
Tmp

°C
App
Tmp
°C
Dew
Point
°C
Rel
Hum
%
Delta-T

°C
Wind Press
QNH
hPa
Press
MSL
hPa
Rain
since
9 am
mm
Dir
 
Spd
km/h
Gust
km/h
Spd
kts
Gust
kts
24/11:30pm 12.4 9.5 9.6 83 1.4 SSW 15 19 8 10 1004.6 1004.5 1.0
24/11:00pm 12.3 10.6 9.9 85 1.2 SSW 9 15 5 8 1004.4 1004.3 1.0
24/10:30pm 12.2 10.5 9.9 86 1.2 S 9 17 5 9 1004.5 1004.4 1.0
24/10:00pm 12.4 10.0 10.1 86 1.2 S 13 19 7 10 1004.3 1004.2 1.0
24/09:30pm 12.5 10.1 10.0 85 1.3 S 13 17 7 9 1004.1 1004.0 1.0
24/09:00pm 12.5 11.4 10.0 85 1.3 SSW 6 11 3 6 1003.9 1003.8 1.0
24/08:30pm 12.7 10.7 10.2 85 1.3 SSW 11 17 6 9 1003.8 1003.7 1.0
24/08:00pm 12.7 10.7 10.1 84 1.3 S 11 19 6 10 1003.6 1003.5 1.0
24/07:30pm 12.9 11.3 10.3 84 1.3 SSW 9 13 5 7 1003.4 1003.3 1.0
24/07:00pm 13.1 12.2 10.6 85 1.3 S 6 13 3 7 1003.3 1003.2 1.0
24/06:30pm 13.2 12.3 10.7 85 1.3 SSW 6 11 3 6 1003.3 1003.2 1.0
24/06:00pm 13.2 12.7 10.7 85 1.3 SSE 4 6 2 3 1002.8 1002.7 1.0
24/05:30pm 13.4 13.3 10.9 85 1.3 S 2 4 1 2 1002.3 1002.2 1.0
24/05:00pm 13.2 12.6 10.4 83 1.5 SE 4 7 2 4 1001.9 1001.9 1.0
24/04:30pm 13.6 12.7 10.6 82 1.6 ESE 6 6 3 3 1001.8 1001.8 1.0
24/04:00pm 13.6 12.7 10.8 83 1.5 ESE 6 7 3 4 1001.8 1001.8 1.0
24/03:30pm 14.1 13.4 11.4 84 1.4 NE 6 6 3 3 1001.9 1001.9 1.0
24/03:00pm 14.0 13.7 11.3 84 1.4 NE 4 6 2 3 1002.2 1002.1 1.0
24/02:30pm 13.8 13.5 11.3 85 1.3 NE 4 4 2 2 1002.4 1002.3 1.0
24/02:00pm 13.9 13.6 11.6 86 1.2 NNE 4 6 2 3 1002.6 1002.5 1.0
24/01:30pm 13.5 13.1 11.2 86 1.2 NNE 4 6 2 3 1002.7 1002.6 1.0
24/01:00pm 13.7 12.9 11.2 85 1.3 NNE 6 7 3 4 1003.0 1002.9 1.0
24/12:30pm 13.8 13.1 11.5 86 1.2 N 6 7 3 4 1003.2 1003.1 1.0
24/12:00pm 13.7 13.5 11.8 88 1.0 NW 4 6 2 3 1003.7 1003.6 1.0
24/11:30am 13.4 13.6 11.8 90 0.9 WNW 2 4 1 2 1004.0 1003.9 1.0
24/11:00am 12.9 13.4 11.6 92 0.7 CALM 0 0 0 0 1004.2 1004.1 1.0
24/10:30am 12.6 13.1 11.5 93 0.6 CALM 0 0 0 0 1004.6 1004.5 1.0
24/10:00am 12.2 12.2 11.1 93 0.6 S 2 2 1 1 1005.1 1005.0 0.8
24/09:30am 12.2 11.9 11.3 94 0.5 SSW 4 6 2 3 1005.5 1005.4 0.2
24/09:00am 12.3 12.0 11.4 94 0.5 SSW 4 6 2 3 1005.8 1005.7 1.0
24/08:30am 12.0 11.6 11.1 94 0.5 SW 4 6 2 3 1006.0 1005.9 0.2
24/08:00am 11.9 11.1 11.0 94 0.5 SSW 6 7 3 4 1006.0 1005.9 0.2
24/07:30am 11.6 10.7 10.7 94 0.5 SSW 6 6 3 3 1006.1 1006.0 0.2
24/07:00am 11.6 10.7 10.7 94 0.5 SSW 6 7 3 4 1006.0 1005.9 0.2
24/06:30am 11.4 10.3 10.5 94 0.5 SSW 7 9 4 5 1006.2 1006.1 0.2
24/06:00am 11.4 9.9 10.6 95 0.4 SSW 9 11 5 6 1006.2 1006.1 0.2
24/05:30am 11.3 10.4 10.5 95 0.4 S 6 7 3 4 1006.4 1006.3 0.2
24/05:00am 11.6 10.5 10.8 95 0.4 SSW 7 7 4 4 1006.7 1006.6 0.2
24/04:30am 11.2 10.2 10.3 94 0.5 SSW 6 6 3 3 1006.8 1006.7 0.2
24/04:00am 11.8 10.8 10.9 94 0.5 S 7 9 4 5 1007.0 1006.9 0.2
24/03:30am 12.0 11.2 10.9 93 0.6 S 6 6 3 3 1007.5 1007.4 0.2
24/03:00am 12.3 11.5 11.2 93 0.6 S 6 6 3 3 1007.9 1007.8 0.2
24/02:30am 12.8 12.1 11.5 92 0.7 NNE 6 6 3 3 1008.4 1008.3 0.2
24/02:00am 12.6 11.7 11.5 93 0.6 NE 7 9 4 5 1008.6 1008.5 0.2
24/01:30am 13.0 12.3 12.1 94 0.5 E 7 9 4 5 1009.2 1009.2 0.2
24/01:00am 12.4 11.7 11.5 94 0.5 SSW 6 6 3 3 1009.7 1009.7 0.0
24/12:30am 12.6 11.9 11.5 93 0.6 SW 6 6 3 3 1010.5 1010.5 0.0
24/12:00am 13.0 12.7 11.6 91 0.7 NE 4 4 2 2 1011.0 1011.0 0.0
 
Date/Time
EST
Tmp

°C
App
Tmp
°C
Dew
Point
°C
Rel
Hum
%
Delta-T

°C
Wind Press
QNH
hPa
Press
MSL
hPa
Rain
since
9 am
mm
Dir
 
Spd
km/h
Gust
km/h
Spd
kts
Gust
kts
23/11:30pm 12.9 13.4 11.5 91 0.7 CALM 0 0 0 0 1011.4 1011.4 0.0
23/11:00pm 13.1 13.6 11.5 90 0.8 CALM 0 0 0 0 1012.0 1012.0 0.0
23/10:30pm 13.2 13.7 11.6 90 0.9 CALM 0 0 0 0 1012.5 1012.5 0.0
23/10:00pm 13.4 13.9 11.6 89 1.0 CALM 0 0 0 0 1013.1 1013.1 0.0
23/09:30pm 13.5 13.7 11.7 89 1.0 NE 2 4 1 2 1013.5 1013.5 0.0
23/09:00pm 13.6 13.4 11.7 88 1.0 NE 4 6 2 3 1013.8 1013.8 0.0
23/08:30pm 13.6 13.0 11.7 88 1.0 NE 6 6 3 3 1014.2 1014.2 0.0
23/08:00pm 13.6 13.0 11.7 88 1.0 NE 6 7 3 4 1014.6 1014.6 0.0
23/07:30pm 13.9 12.4 11.8 87 1.1 NE 11 13 6 7 1015.2 1015.2 0.0
23/07:00pm 13.8 13.0 11.7 87 1.1 NE 7 9 4 5 1015.5 1015.5 0.0
23/06:30pm 13.8 12.3 11.8 88 1.1 ENE 11 13 6 7 1015.6 1015.6 0.0
23/06:00pm 14.0 13.0 12.2 89 1.0 ENE 9 13 5 7 1015.7 1015.7 0.0
23/05:30pm 13.9 13.2 12.1 89 1.0 ESE 7 9 4 5 1015.6 1015.6 0.0
23/05:00pm 13.9 13.3 11.8 87 1.1 ESE 6 7 3 4 1015.9 1015.9 0.0
23/04:30pm 14.3 13.7 12.2 87 1.1 ESE 7 11 4 6 1016.3 1016.3 0.0
23/04:00pm 14.2 12.6 11.7 85 1.3 ESE 11 13 6 7 1016.7 1016.7 0.0
23/03:30pm 14.6 13.1 11.9 84 1.5 ESE 11 15 6 8 1017.1 1017.1 0.0
23/03:00pm 14.4 12.8 11.6 83 1.5 ESE 11 15 6 8 1017.7 1017.7 0.0
23/02:30pm 14.8 13.7 11.8 82 1.6 E 9 11 5 6 1017.9 1017.9 0.0
23/02:00pm 14.6 14.3 11.6 82 1.6 ENE 4 6 2 3 1018.4 1018.4 0.0
23/01:30pm 14.4 14.1 11.4 82 1.6 NW 4 6 2 3 1018.8 1018.8 0.0
23/01:00pm 15.7 15.1 11.7 77 2.2 WNW 6 9 3 5 1019.1 1019.1 0.0
23/12:30pm 14.6 14.1 11.9 84 1.5 E 6 7 3 4 1019.9 1019.9 0.0
23/12:00pm 13.8 13.7 12.0 89 1.0 ENE 4 6 2 3 1020.7 1020.7 0.0
23/11:30am 13.6 12.8 11.8 89 1.0 ESE 7 9 4 5 1021.4 1021.4 0.0
23/11:00am 13.7 12.3 12.1 90 0.9 ESE 11 13 6 7 1021.8 1021.8 0.0
23/10:30am 13.6 12.6 12.2 91 0.8 ESE 9 11 5 6 1021.9 1021.9 0.0
23/10:00am 13.6 13.6 12.3 92 0.7 S 4 6 2 3 1022.1 1022.1 0.0
23/09:30am 12.9 12.2 12.0 94 0.5 WSW 7 9 4 5 1022.5 1022.5 0.0
23/09:00am 13.1 13.0 12.2 94 0.5 NW 4 6 2 3 1022.8 1022.8 0.0
23/08:30am 12.8 13.4 12.0 95 0.4 CALM 0 0 0 0 1023.0 1023.0 0.0
23/08:00am 12.9 13.2 12.3 96 0.3 SSW 2 2 1 1 1023.2 1023.2 0.0
23/07:30am 11.7 10.9 11.1 96 0.3 SSW 6 7 3 4 1023.1 1023.1 0.0
23/07:00am 11.5 10.4 10.7 95 0.4 SW 7 9 4 5 1022.9 1022.9 0.0
23/06:30am 11.9 11.1 11.1 95 0.4 SW 6 6 3 3 1023.0 1023.0 0.0
23/06:00am 12.5 12.6 11.6 94 0.5 N 2 4 1 2 1023.0 1023.0 0.0
23/05:30am 12.8 13.4 11.9 94 0.5 CALM 0 0 0 0 1023.1 1023.1 0.0
23/05:00am 13.1 13.0 12.0 93 0.6 N 4 6 2 3 1023.3 1023.3 0.0
23/04:30am 13.2 12.5 12.1 93 0.6 NNE 7 9 4 5 1023.2 1023.2 0.0
23/04:00am 13.5 13.0 12.2 92 0.7 NNE 6 9 3 5 1023.3 1023.3 0.0
23/03:30am 13.1 12.5 11.8 92 0.7 NNE 6 7 3 4 1023.4 1023.4 0.0
23/03:00am 13.3 12.8 12.2 93 0.6 N 6 7 3 4 1023.8 1023.8 0.0
23/02:30am 13.3 12.7 12.2 93 0.6 NE 7 9 4 5 1024.1 1024.1 0.0
23/02:00am 13.5 12.1 12.2 92 0.7 NE 11 13 6 7 1024.4 1024.4 0.0
23/01:30am 13.6 12.6 12.3 92 0.7 NE 9 11 5 6 1024.6 1024.6 0.0
23/01:00am 13.5 14.2 12.1 91 0.7 CALM 0 2 0 1 1024.7 1024.7 0.0
23/12:30am 13.5 14.2 12.1 91 0.8 CALM 0 2 0 1 1024.8 1024.8 0.0
23/12:00am 13.5 13.8 12.1 91 0.7 SW 2 6 1 3 1024.9 1024.9 0.0
 
Date/Time
EST
Tmp

°C
App
Tmp
°C
Dew
Point
°C
Rel
Hum
%
Delta-T

°C
Wind Press
QNH
hPa
Press
MSL
hPa
Rain
since
9 am
mm
Dir
 
Spd
km/h
Gust
km/h
Spd
kts
Gust
kts
22/11:30pm 13.6 14.2 12.0 90 0.9 CALM 0 0 0 0 1025.0 1025.0 0.0
22/11:00pm 13.6 14.2 11.8 89 1.0 CALM 0 0 0 0 1025.2 1025.2 0.0
22/10:30pm 13.7 14.3 11.9 89 1.0 CALM 0 0 0 0 1025.6 1025.6 0.0
22/10:00pm 13.7 14.3 11.8 88 1.0 CALM 0 2 0 1 1025.8 1025.8 0.0
22/09:30pm 13.8 14.0 11.8 88 1.1 SW 2 4 1 2 1026.0 1026.0 0.0
22/09:00pm 13.8 13.6 11.8 88 1.1 SW 4 4 2 2 1026.1 1026.1 0.0
22/08:30pm 13.7 13.5 11.8 88 1.0 SW 4 6 2 3 1026.2 1026.2 0.0
22/08:00pm 13.9 13.7 11.9 88 1.1 SW 4 6 2 3 1026.2 1026.2 0.0
22/07:30pm 14.2 14.5 12.1 87 1.1 SE 2 6 1 3 1026.3 1026.3 0.0
22/07:00pm 14.1 14.3 12.0 87 1.1 S 2 4 1 2 1026.4 1026.4 0.0

Latest Capital City Observations: Canberra | Sydney | Melbourne | Brisbane | Adelaide | Perth | Hobart | Darwin

Other Formats:

Comma delimited format used in spreadsheet applications
http://www.bom.gov.au/fwo/IDT60901/IDT60901.94988.axf

JavaScript Object Notation format (JSON) in row-major order
http://www.bom.gov.au/fwo/IDT60901/IDT60901.94988.json